Time;durP1;ratioP1;P1;durP2;ratioP2;P2;SDS_P1;SDS_P2;PMS_P1;PMS_P2;Temp;Humidity;BMP_temperature;BMP_pressure;BME280_temperature;BME280_humidity;BME280_pressure;Samples;Min_cycle;Max_cycle;Signal;HPM_P1;HPM_P2
2022/07/29 00:01:19;;;;;;;5.30;4.90;;;;;;;22.64;70.35;101257.44;4998255;28;102050;-53
2022/07/29 00:03:46;;;;;;;6.32;5.45;;;;;;;22.67;70.34;101253.16;4997997;28;102204;-54
2022/07/29 00:06:14;;;;;;;5.18;4.70;;;;;;;22.67;70.34;101258.72;4996948;28;104416;-54
2022/07/29 00:08:42;;;;;;;5.13;4.72;;;;;;;22.67;70.37;101262.28;4997769;28;102178;-54
2022/07/29 00:11:11;;;;;;;5.82;5.28;;;;;;;22.67;70.53;101265.06;4996843;28;102118;-54
2022/07/29 00:13:39;;;;;;;6.28;5.68;;;;;;;22.68;70.39;101266.69;4999466;28;102535;-54
2022/07/29 00:16:10;;;;;;;6.15;5.15;;;;;;;22.69;70.31;101268.34;4997278;28;103834;-54
2022/07/29 00:18:37;;;;;;;6.00;5.50;;;;;;;22.69;70.38;101278.63;4998494;28;102361;-54
2022/07/29 00:21:04;;;;;;;6.07;5.57;;;;;;;22.68;70.30;101277.78;4997635;28;101919;-54
2022/07/29 00:23:30;;;;;;;5.63;5.13;;;;;;;22.68;70.59;101276.97;4998994;28;102075;-54
2022/07/29 00:25:58;;;;;;;7.40;5.90;;;;;;;22.67;70.16;101284.50;4994091;28;103889;-54
2022/07/29 00:28:25;;;;;;;6.17;5.50;;;;;;;22.67;70.50;101284.50;4997234;28;102262;-54
2022/07/29 00:30:51;;;;;;;5.70;5.20;;;;;;;22.67;70.26;101273.41;4995181;28;102277;-53
2022/07/29 00:33:18;;;;;;;6.18;5.10;;;;;;;22.68;70.57;101272.22;4998163;28;102279;-54
2022/07/29 00:35:45;;;;;;;6.78;5.85;;;;;;;22.68;70.40;101282.53;4997512;28;103991;-53
2022/07/29 00:38:15;;;;;;;5.70;5.25;;;;;;;22.67;70.31;101276.16;4998189;28;102164;-54
2022/07/29 00:40:43;;;;;;;6.05;5.55;;;;;;;22.68;70.57;101276.97;4987871;28;102293;-54
2022/07/29 00:43:14;;;;;;;5.57;5.18;;;;;;;22.67;70.51;101287.28;4998862;28;102223;-54
2022/07/29 00:45:43;;;;;;;6.32;5.70;;;;;;;22.66;70.43;101290.41;4993569;28;103869;-54
2022/07/29 00:48:10;;;;;;;6.25;5.25;;;;;;;22.67;70.29;101287.28;4997798;28;102157;-53
2022/07/29 00:50:37;;;;;;;5.90;5.28;;;;;;;22.67;70.40;101292.81;4994754;28;102076;-54
2022/07/29 00:53:06;;;;;;;5.82;5.32;;;;;;;22.67;70.56;101292.81;4997183;28;102154;-54
2022/07/29 00:55:34;;;;;;;6.18;5.60;;;;;;;22.67;70.51;101292.81;4996721;28;103766;-53
2022/07/29 00:58:01;;;;;;;6.82;5.70;;;;;;;22.65;70.48;101289.59;4996742;28;102246;-53
2022/07/29 01:00:30;;;;;;;7.40;5.53;;;;;;;22.66;70.22;101282.06;4996090;28;102291;-54
2022/07/29 01:02:58;;;;;;;5.82;5.32;;;;;;;22.65;70.70;101278.50;4997585;28;102155;-53
2022/07/29 01:05:27;;;;;;;10.73;6.95;;;;;;;22.66;70.43;101270.97;4994521;28;103908;-54
2022/07/29 01:07:57;;;;;;;6.20;5.60;;;;;;;22.63;70.58;101261.34;4996543;28;102278;-55
2022/07/29 01:10:25;;;;;;;6.15;5.55;;;;;;;22.63;70.27;101264.13;4995949;28;102261;-54
2022/07/29 01:12:54;;;;;;;6.15;5.10;;;;;;;22.64;70.32;101259.41;4992217;28;102671;-54
2022/07/29 01:15:21;;;;;;;7.00;5.93;;;;;;;22.63;70.46;101257.78;4995416;28;103918;-54
2022/07/29 01:17:53;;;;;;;6.30;5.65;;;;;;;22.62;70.49;101256.97;4996136;28;102013;-54
2022/07/29 01:20:29;;;;;;;6.35;5.85;;;;;;;22.63;70.24;101258.59;4989573;28;102032;-53
2022/07/29 01:23:16;;;;;;;6.22;5.65;;;;;;;22.61;70.38;101255.34;4994429;28;102559;-53
2022/07/29 01:26:02;;;;;;;37.67;5.85;;;;;;;22.62;70.20;101256.16;4995536;28;104166;-54
2022/07/29 01:28:47;;;;;;;5.95;5.32;;;;;;;22.62;70.33;101261.72;4996503;28;102405;-54
2022/07/29 01:31:18;;;;;;;6.00;5.50;;;;;;;22.62;70.36;101261.72;4998942;28;102215;-54
2022/07/29 01:33:53;;;;;;;5.38;4.97;;;;;;;22.60;70.33;101250.13;4998250;28;102219;-54
2022/07/29 01:36:27;;;;;;;6.93;4.85;;;;;;;22.62;70.36;101251.41;4998494;28;103893;-54
2022/07/29 01:39:02;;;;;;;6.20;5.60;;;;;;;22.61;70.37;101254.53;4999898;28;102313;-54
2022/07/29 01:41:32;;;;;;;6.20;5.60;;;;;;;22.61;70.54;101248.97;4999344;28;101987;-54
2022/07/29 01:44:07;;;;;;;6.32;5.72;;;;;;;22.60;70.56;101253.72;5000793;28;102221;-54
2022/07/29 01:46:38;;;;;;;5.90;5.22;;;;;;;22.60;70.48;101259.25;4998475;28;103999;-54
2022/07/29 01:49:09;;;;;;;6.43;5.15;;;;;;;22.60;70.46;101256.50;4994636;28;102213;-54
2022/07/29 01:51:45;;;;;;;6.03;5.40;;;;;;;22.60;70.62;101258.44;4998618;28;102250;-54
2022/07/29 01:54:18;;;;;;;5.78;5.25;;;;;;;22.60;70.44;101258.44;4999612;28;102436;-54
2022/07/29 01:56:49;;;;;;;6.03;5.53;;;;;;;22.59;70.38;101257.66;4999016;28;104070;-54
2022/07/29 01:59:18;;;;;;;6.32;5.60;;;;;;;22.58;70.34;101256.03;4991565;28;102175;-54
2022/07/29 02:01:48;;;;;;;7.65;5.38;;;;;;;22.59;70.47;101251.28;4998378;28;102233;-54
2022/07/29 02:04:16;;;;;;;5.97;5.10;;;;;;;22.59;70.73;101251.28;4996869;28;102205;-54
2022/07/29 02:06:44;;;;;;;6.88;5.10;;;;;;;22.58;70.47;101256.03;4989018;28;103949;-54
2022/07/29 02:09:14;;;;;;;5.18;4.78;;;;;;;22.59;70.33;101265.97;4982959;28;101949;-54
2022/07/29 02:11:48;;;;;;;5.18;4.78;;;;;;;22.57;70.38;101268.25;4998464;28;102026;-54
2022/07/29 02:14:18;;;;;;;5.60;5.10;;;;;;;22.59;70.17;101267.94;4999725;28;102200;-53
2022/07/29 02:16:49;;;;;;;5.10;4.60;;;;;;;22.58;70.19;101266.31;4998324;28;104043;-54
2022/07/29 02:19:18;;;;;;;5.68;5.22;;;;;;;22.59;70.25;101265.97;4996483;28;102318;-54
2022/07/29 02:21:45;;;;;;;;;;;;;;;22.59;70.33;101265.16;4993806;28;102395;-53
2022/07/29 02:24:14;;;;;;;5.15;4.75;;;;;;;22.59;70.13;101273.47;4999801;28;102118;-54
2022/07/29 02:26:42;;;;;;;5.95;5.35;;;;;;;22.58;69.94;101267.13;4998418;28;103812;-54
2022/07/29 02:29:12;;;;;;;5.72;4.63;;;;;;;22.59;70.43;101262.38;4997749;28;102152;-54
2022/07/29 02:31:44;;;;;;;6.40;4.85;;;;;;;22.58;70.33;101267.13;4998202;28;102968;-54
2022/07/29 02:34:13;;;;;;;5.20;4.75;;;;;;;22.58;70.24;101271.88;4998439;28;102046;-54
2022/07/29 02:36:41;;;;;;;5.47;4.97;;;;;;;22.58;70.30;101280.19;4997284;28;103887;-54
2022/07/29 02:39:10;;;;;;;5.40;4.90;;;;;;;22.58;70.25;101277.41;4998178;28;102244;-54
2022/07/29 02:41:42;;;;;;;5.45;4.53;;;;;;;22.56;70.42;101280.50;4997089;28;102279;-54
2022/07/29 02:44:11;;;;;;;4.85;4.35;;;;;;;22.59;70.32;101284.56;4999183;28;102113;-53
2022/07/29 02:46:46;;;;;;;5.03;4.63;;;;;;;22.57;70.26;101281.31;4998032;28;103898;-54
2022/07/29 02:49:18;;;;;;;5.10;4.70;;;;;;;22.58;70.35;101282.97;4995484;28;103042;-54
2022/07/29 02:51:49;;;;;;;4.80;4.40;;;;;;;22.56;70.21;101272.19;4983173;28;102054;-54
2022/07/29 02:54:23;;;;;;;5.00;4.50;;;;;;;22.56;70.21;101269.41;4998063;28;102090;-53
2022/07/29 02:56:55;;;;;;;5.45;4.20;;;;;;;22.55;70.19;101267.81;4997855;28;103827;-53
2022/07/29 02:59:26;;;;;;;4.75;4.35;;;;;;;22.55;70.23;101267.81;4998346;28;102248;-54
2022/07/29 03:01:57;;;;;;;4.72;4.28;;;;;;;22.57;70.33;101273.81;4998306;28;102098;-54
2022/07/29 03:04:28;;;;;;;5.13;4.72;;;;;;;22.55;70.02;101263.06;4997656;28;102060;-53
2022/07/29 03:06:58;;;;;;;5.78;4.35;;;;;;;22.56;70.27;101272.19;4997062;28;103894;-53
2022/07/29 03:09:26;;;;;;;5.32;4.22;;;;;;;22.55;70.24;101273.34;4998002;28;102070;-54
2022/07/29 03:11:54;;;;;;;5.55;4.25;;;;;;;22.55;70.27;101279.69;4984772;28;102099;-53
2022/07/29 03:14:22;;;;;;;4.53;3.80;;;;;;;22.55;70.15;101285.25;4999191;28;101954;-54
2022/07/29 03:16:50;;;;;;;5.97;3.90;;;;;;;22.55;70.10;101290.00;4997015;28;104124;-53
2022/07/29 03:19:20;;;;;;;4.53;4.13;;;;;;;22.55;70.19;101285.25;4996736;28;102292;-54
2022/07/29 03:21:46;;;;;;;4.78;4.38;;;;;;;22.55;70.04;101298.31;4997762;28;102354;-54
2022/07/29 03:24:28;;;;;;;4.70;4.00;;;;;;;22.54;70.04;101300.28;4999285;28;102585;-54
2022/07/29 03:26:55;;;;;;;4.43;4.07;;;;;;;22.56;70.35;101305.47;4997054;28;104112;-54
2022/07/29 03:29:21;;;;;;;5.50;4.20;;;;;;;22.55;70.18;101306.63;4997353;28;102312;-54
2022/07/29 03:31:48;;;;;;;4.47;4.07;;;;;;;22.54;70.02;101311.38;4997583;28;102264;-53
2022/07/29 03:34:15;;;;;;;4.80;4.20;;;;;;;22.55;70.24;101312.19;4997839;28;102362;-53
2022/07/29 03:36:46;;;;;;;4.43;4.03;;;;;;;22.55;70.13;101314.97;4997563;28;103980;-53
2022/07/29 03:39:18;;;;;;;4.78;4.20;;;;;;;22.54;70.18;101319.69;4997249;28;102449;-54
2022/07/29 03:41:47;;;;;;;5.22;4.28;;;;;;;22.55;70.15;101326.06;4979843;28;102143;-53
2022/07/29 03:44:17;;;;;;;5.50;4.30;;;;;;;22.54;70.30;101321.66;4994871;28;102585;-53
2022/07/29 03:46:45;;;;;;;4.30;3.92;;;;;;;22.56;70.32;101324.91;4996976;28;103963;-54
2022/07/29 03:49:14;;;;;;;4.57;3.73;;;;;;;22.55;70.12;101329.63;4995865;28;102332;-54
2022/07/29 03:51:40;;;;;;;;;;;;;;;22.55;70.05;101334.38;4984079;28;102459;-54
2022/07/29 03:54:09;;;;;;;4.47;4.00;;;;;;;22.54;69.79;101333.56;4989448;28;102184;-53
2022/07/29 03:56:39;;;;;;;3.95;3.65;;;;;;;22.54;69.99;101338.31;4997020;28;104047;-54
2022/07/29 03:59:07;;;;;;;5.05;3.97;;;;;;;22.54;70.15;101339.13;4996510;28;102399;-53
2022/07/29 04:01:35;;;;;;;5.97;3.83;;;;;;;22.54;70.17;101347.44;4977285;28;101835;-53
2022/07/29 04:04:04;;;;;;;4.30;3.90;;;;;;;22.54;69.83;101338.31;4984473;28;102258;-54
2022/07/29 04:06:38;;;;;;;5.78;3.55;;;;;;;22.53;70.06;101350.53;4997006;28;104101;-54
2022/07/29 04:09:04;;;;;;;4.43;3.55;;;;;;;22.53;69.84;101353.31;4996468;28;101940;-54
2022/07/29 04:11:33;;;;;;;4.00;3.63;;;;;;;22.53;69.90;101347.75;4997164;28;101913;-53
2022/07/29 04:14:02;;;;;;;4.15;3.65;;;;;;;22.52;70.10;101351.69;4998590;28;102339;-53
2022/07/29 04:16:30;;;;;;;4.72;3.58;;;;;;;22.53;69.91;101364.41;4998966;28;103927;-54
2022/07/29 04:18:57;;;;;;;4.18;3.45;;;;;;;22.53;69.77;101353.31;4997672;28;102359;-53
2022/07/29 04:21:23;;;;;;;3.63;3.33;;;;;;;22.53;70.30;101347.75;4996632;28;102157;-53
2022/07/29 04:23:50;;;;;;;4.53;3.22;;;;;;;22.52;69.88;101340.59;4996741;28;102248;-53
2022/07/29 04:26:17;;;;;;;3.35;2.80;;;;;;;22.53;70.02;101342.22;4983619;28;103984;-53
2022/07/29 04:28:45;;;;;;;3.47;3.17;;;;;;;22.53;70.06;101342.22;4996621;28;101914;-54
2022/07/29 04:31:12;;;;;;;3.60;3.20;;;;;;;22.53;69.91;101343.00;4994907;28;102383;-53
2022/07/29 04:33:39;;;;;;;3.55;3.25;;;;;;;22.52;69.98;101340.59;4997796;28;102154;-53
2022/07/29 04:36:06;;;;;;;5.55;3.10;;;;;;;22.53;69.96;101342.22;4995603;28;104112;-53
2022/07/29 04:38:32;;;;;;;3.97;3.40;;;;;;;22.54;69.95;101338.31;4997165;28;102152;-54
2022/07/29 04:40:59;;;;;;;3.83;3.53;;;;;;;22.53;69.86;101347.75;4994516;28;102615;-54
2022/07/29 04:43:25;;;;;;;3.33;3.13;;;;;;;22.52;69.73;101335.84;4997611;28;102438;-54
2022/07/29 04:45:54;;;;;;;3.38;3.05;;;;;;;22.52;70.05;101346.94;4995416;28;103926;-54
2022/07/29 04:48:32;;;;;;;3.22;2.88;;;;;;;22.52;69.80;101335.84;4997648;28;102380;-54
2022/07/29 04:51:00;;;;;;;;;;;;;;;22.53;69.81;101336.66;4996283;28;102154;-54
2022/07/29 04:53:27;;;;;;;3.67;3.03;;;;;;;22.54;69.87;101343.84;4998068;28;102600;-53
2022/07/29 04:55:54;;;;;;;4.70;3.20;;;;;;;22.52;69.79;101352.50;4994619;28;104361;-53
2022/07/29 05:01:46;;;;;;;3.50;3.20;;;;;;;22.54;70.10;101360.50;4988875;28;102207;-53
2022/07/29 05:04:14;;;;;;;5.70;2.83;;;;;;;22.53;70.07;101353.31;5000745;28;102223;-54
2022/07/29 05:06:40;;;;;;;4.25;3.10;;;;;;;22.54;69.81;101354.94;4999280;28;103835;-53
2022/07/29 05:09:07;;;;;;;3.35;3.05;;;;;;;22.53;69.98;101353.31;5000860;28;102167;-53
2022/07/29 05:11:35;;;;;;;4.13;2.97;;;;;;;22.53;69.89;101348.56;4997659;28;102184;-53
2022/07/29 05:14:01;;;;;;;3.40;3.03;;;;;;;22.51;69.71;101344.53;5000905;28;102249;-53
2022/07/29 05:16:28;;;;;;;3.90;3.15;;;;;;;22.52;69.72;101340.59;4999165;28;104108;-53
2022/07/29 05:18:56;;;;;;;3.10;2.83;;;;;;;22.52;69.80;101341.41;4999499;28;102269;-53
2022/07/29 05:21:22;;;;;;;4.10;2.90;;;;;;;22.52;70.00;101335.03;4999010;28;102367;-53
2022/07/29 05:23:49;;;;;;;2.95;2.75;;;;;;;22.52;69.75;101341.41;5000693;28;102262;-53
2022/07/29 05:26:16;;;;;;;6.07;3.03;;;;;;;22.52;69.88;101337.81;4999798;28;103921;-54
2022/07/29 05:28:42;;;;;;;3.78;3.10;;;;;;;22.51;69.70;101338.97;4999920;28;102178;-54
2022/07/29 05:31:09;;;;;;;3.20;2.90;;;;;;;22.51;69.55;101333.44;4999159;28;102174;-54
2022/07/29 05:33:35;;;;;;;5.25;2.88;;;;;;;22.51;69.62;101333.44;4999368;28;103925;-54
2022/07/29 05:36:06;;;;;;;3.08;2.80;;;;;;;22.51;69.81;101331.47;4998518;28;103965;-54
2022/07/29 05:38:33;;;;;;;4.45;2.80;;;;;;;22.51;70.02;101334.22;4999815;28;101892;-54
2022/07/29 05:41:00;;;;;;;2.90;2.70;;;;;;;22.52;69.77;101340.59;4998514;28;103920;-53
2022/07/29 05:43:27;;;;;;;3.20;2.47;;;;;;;22.51;69.74;101334.22;5001023;28;102217;-54
2022/07/29 05:45:54;;;;;;;2.95;2.63;;;;;;;22.51;69.93;101339.78;4998785;28;103865;-53
2022/07/29 05:48:20;;;;;;;2.80;2.60;;;;;;;22.51;69.69;101339.78;4997521;28;102550;-54
2022/07/29 05:50:47;;;;;;;2.78;2.58;;;;;;;22.51;69.78;101339.78;4997788;28;102341;-54
2022/07/29 05:53:16;;;;;;;3.00;2.72;;;;;;;22.52;69.59;101340.59;4997129;28;102237;-53
2022/07/29 05:55:46;;;;;;;2.80;2.60;;;;;;;22.51;69.59;101331.47;4992545;28;104116;-54
2022/07/29 05:58:13;;;;;;;2.85;2.65;;;;;;;22.52;69.69;101329.50;4998222;28;102178;-54
2022/07/29 06:00:39;;;;;;;4.40;2.63;;;;;;;22.52;69.55;101329.50;4998825;28;102287;-53
2022/07/29 06:03:07;;;;;;;4.07;2.70;;;;;;;22.52;69.52;101329.50;4999150;28;102344;-53
2022/07/29 06:05:33;;;;;;;3.28;2.22;;;;;;;22.52;68.96;101327.53;4997945;28;103777;-53
2022/07/29 06:08:00;;;;;;;3.60;2.60;;;;;;;22.52;69.42;101324.75;4998421;28;102462;-54
2022/07/29 06:10:30;;;;;;;2.95;2.40;;;;;;;22.53;69.46;101325.56;4997960;28;102596;-53
2022/07/29 06:12:57;;;;;;;2.67;2.47;;;;;;;22.54;68.93;101327.22;4998504;28;102190;-53
2022/07/29 06:15:24;;;;;;;2.63;2.42;;;;;;;22.55;68.57;101328.81;4997584;28;104121;-53
2022/07/29 06:17:52;;;;;;;2.45;2.20;;;;;;;22.57;68.00;101320.16;4998228;28;102153;-54
2022/07/29 06:20:20;;;;;;;2.95;2.05;;;;;;;22.60;68.28;101322.25;5015873;28;102443;-53
2022/07/29 06:22:48;;;;;;;3.70;2.30;;;;;;;22.66;68.33;101329.22;5019521;28;102484;-53
2022/07/29 06:25:14;;;;;;;4.88;2.78;;;;;;;22.69;67.17;101325.78;5011379;28;103858;-53
2022/07/29 06:27:48;;;;;;;2.53;2.17;;;;;;;22.72;66.44;101327.84;5002540;28;101969;-54
2022/07/29 06:30:15;;;;;;;3.40;2.25;;;;;;;22.72;68.14;101323.16;5007595;28;102126;-53
2022/07/29 06:32:41;;;;;;;2.58;2.15;;;;;;;22.74;68.47;101315.28;5019542;28;102165;-54
2022/07/29 06:35:09;;;;;;;2.30;2.10;;;;;;;22.74;68.81;101315.28;5017580;28;103999;-53
2022/07/29 06:37:36;;;;;;;2.50;2.30;;;;;;;22.75;68.58;101314.13;5017907;28;102718;-53
2022/07/29 06:42:57;;;;;;;4.03;2.38;;;;;;;22.74;68.67;101320.81;5016095;28;102417;-53
2022/07/29 06:45:24;;;;;;;4.20;2.50;;;;;;;22.74;68.63;101331.94;5017593;28;103845;-53
2022/07/29 06:47:50;;;;;;;3.50;2.35;;;;;;;22.73;68.12;101324.75;5018140;28;102180;-53
2022/07/29 06:50:21;;;;;;;2.40;2.20;;;;;;;22.75;68.04;101327.19;5016763;28;102310;-53
2022/07/29 06:52:47;;;;;;;2.30;1.92;;;;;;;22.79;67.15;101328.97;5018512;28;102930;-53
2022/07/29 06:55:15;;;;;;;4.57;2.25;;;;;;;22.78;68.77;101330.09;5016676;28;104176;-54
2022/07/29 06:57:41;;;;;;;4.93;2.42;;;;;;;22.78;68.58;101338.41;5008719;28;102142;-54
2022/07/29 07:00:11;;;;;;;3.50;2.10;;;;;;;22.81;68.03;101327.81;5003880;28;102371;-53
2022/07/29 07:02:37;;;;;;;2.28;2.08;;;;;;;22.78;68.74;101316.22;4999003;28;102212;-53
2022/07/29 07:05:07;;;;;;;4.38;2.30;;;;;;;22.79;68.01;101323.41;4996684;28;103664;-53
2022/07/29 07:07:33;;;;;;;5.03;2.15;;;;;;;22.78;68.84;101321.78;4998433;28;102127;-53
2022/07/29 07:10:00;;;;;;;2.35;2.15;;;;;;;22.78;68.58;101323.75;4994749;28;102612;-53
2022/07/29 07:12:29;;;;;;;2.42;2.22;;;;;;;22.77;68.55;101325.69;4995158;28;102460;-53
2022/07/29 07:14:57;;;;;;;2.42;2.22;;;;;;;22.78;68.42;101330.09;4995109;28;104067;-54
2022/07/29 07:17:25;;;;;;;2.50;2.30;;;;;;;22.79;68.06;101331.75;4995087;28;102565;-53
2022/07/29 07:19:53;;;;;;;3.40;2.42;;;;;;;22.81;68.96;101336.13;4997993;28;102133;-54
2022/07/29 07:22:19;;;;;;;4.90;2.80;;;;;;;22.77;68.47;101334.03;4997634;28;104650;-54
2022/07/29 07:24:46;;;;;;;2.65;2.45;;;;;;;22.78;68.94;101335.63;4996149;28;103899;-53
2022/07/29 07:27:13;;;;;;;3.40;2.87;;;;;;;22.78;68.88;101341.19;4996273;28;102132;-53
2022/07/29 07:29:40;;;;;;;3.53;2.35;;;;;;;22.79;68.73;101351.16;4996466;28;102268;-54
2022/07/29 07:32:07;;;;;;;2.78;2.58;;;;;;;22.80;68.24;101351.97;4997977;28;102595;-54
2022/07/29 07:34:37;;;;;;;2.50;2.30;;;;;;;22.81;68.38;101353.59;5009051;28;104109;-54
2022/07/29 07:37:04;;;;;;;2.78;2.50;;;;;;;22.81;68.64;101363.88;5015139;28;102149;-53
2022/07/29 07:39:31;;;;;;;2.60;2.13;;;;;;;22.81;68.65;101363.88;5017079;27;102403;-54
2022/07/29 07:41:57;;;;;;;2.10;2.00;;;;;;;22.79;68.92;101366.97;5004528;28;102318;-53
2022/07/29 07:44:26;;;;;;;3.35;2.25;;;;;;;22.79;68.95;101373.38;4997493;28;103703;-54
2022/07/29 07:46:53;;;;;;;2.60;2.40;;;;;;;22.79;68.75;101376.13;4995480;28;102099;-54
2022/07/29 07:49:20;;;;;;;2.97;2.10;;;;;;;22.80;68.68;101376.94;4993977;28;102346;-54
2022/07/29 07:51:48;;;;;;;2.55;2.35;;;;;;;22.81;68.65;101369.44;4996661;28;102508;-53
2022/07/29 07:54:15;;;;;;;2.85;2.25;;;;;;;22.79;68.91;101373.38;4992766;28;103958;-54
2022/07/29 07:56:42;;;;;;;3.78;2.65;;;;;;;22.78;68.64;101377.25;4997222;28;102224;-54
2022/07/29 07:59:09;;;;;;;2.72;2.33;;;;;;;22.78;68.71;101387.56;4996360;28;102267;-54
2022/07/29 08:01:36;;;;;;;3.10;2.20;;;;;;;22.78;68.47;101393.91;4998149;28;102163;-53
2022/07/29 08:04:03;;;;;;;2.75;2.40;;;;;;;22.78;68.78;101393.09;4996572;28;103965;-53
2022/07/29 08:06:30;;;;;;;2.63;2.25;;;;;;;22.77;68.67;101397.03;4996888;28;102131;-54
2022/07/29 08:09:01;;;;;;;2.67;2.47;;;;;;;22.76;68.72;101404.56;4996599;28;102219;-54
2022/07/29 08:11:28;;;;;;;4.60;2.10;;;;;;;22.77;69.05;101397.84;4997984;28;102144;-54
2022/07/29 08:13:55;;;;;;;2.60;2.30;;;;;;;22.77;68.99;101394.28;4996502;28;103841;-53
2022/07/29 08:16:21;;;;;;;2.63;2.20;;;;;;;22.78;68.94;101405.00;4978403;28;102131;-54
2022/07/29 08:18:50;;;;;;;2.70;2.50;;;;;;;22.77;68.69;101403.41;4996049;28;102259;-54
2022/07/29 08:21:18;;;;;;;2.40;2.20;;;;;;;22.77;68.78;101408.94;4997520;28;102197;-54
2022/07/29 08:23:46;;;;;;;2.70;2.50;;;;;;;22.78;68.78;101410.56;4996432;28;104186;-54
2022/07/29 08:26:14;;;;;;;;;;;;;;;22.78;68.61;101404.22;4997480;28;102024;-54
2022/07/29 08:28:49;;;;;;;2.40;2.20;;;;;;;22.79;68.65;101405.81;4996619;28;102195;-54
2022/07/29 08:31:17;;;;;;;2.65;2.30;;;;;;;22.78;68.87;101404.22;4998125;28;102463;-54
2022/07/29 08:33:44;;;;;;;2.60;2.40;;;;;;;22.81;68.38;101406.31;4995653;28;103990;-54
2022/07/29 08:36:10;;;;;;;2.47;2.28;;;;;;;22.82;69.02;101409.91;4995835;28;102097;-54
2022/07/29 08:38:37;;;;;;;2.40;2.20;;;;;;;22.84;68.86;101404.84;4996384;28;102165;-54
2022/07/29 08:41:04;;;;;;;2.95;2.38;;;;;;;22.86;68.44;101410.84;4997409;28;101997;-54
2022/07/29 08:43:34;;;;;;;3.78;2.42;;;;;;;22.87;68.58;101418.03;4995399;28;103744;-54
2022/07/29 08:46:01;;;;;;;2.97;2.50;;;;;;;22.86;69.04;101413.63;4995515;28;102077;-54
2022/07/29 08:48:29;;;;;;;3.40;2.67;;;;;;;22.85;68.82;101412.81;4995895;28;101881;-54
2022/07/29 08:50:57;;;;;;;2.63;2.30;;;;;;;22.85;68.88;101420.31;4997184;28;102082;-54
2022/07/29 08:53:28;;;;;;;2.45;2.30;;;;;;;22.85;68.99;101425.88;4995238;28;103983;-54
2022/07/29 08:55:57;;;;;;;3.63;2.40;;;;;;;22.84;68.97;101427.84;4996270;28;102244;-54
2022/07/29 08:58:26;;;;;;;2.75;2.55;;;;;;;22.83;69.10;101417.06;4995756;28;102038;-53
2022/07/29 09:00:55;;;;;;;;;;;;;;;22.84;68.97;101418.72;5000005;28;102144;-54
2022/07/29 09:03:24;;;;;;;2.92;2.65;;;;;;;22.85;68.89;101431.44;4995476;28;103897;-54
2022/07/29 09:05:52;;;;;;;3.63;2.50;;;;;;;22.85;68.78;101428.66;4993396;28;102402;-53
2022/07/29 09:08:21;;;;;;;2.50;2.30;;;;;;;22.84;69.10;101425.06;4990709;28;102218;-54
2022/07/29 09:10:49;;;;;;;2.40;2.20;;;;;;;22.84;69.16;101436.16;4995081;28;102656;-54
2022/07/29 09:13:19;;;;;;;2.70;2.30;;;;;;;22.85;68.91;101425.88;4994963;28;104100;-54
2022/07/29 09:15:46;;;;;;;2.15;1.95;;;;;;;22.85;68.83;101423.91;4995897;28;102172;-54
2022/07/29 09:18:33;;;;;;;2.42;2.22;;;;;;;22.85;68.91;101428.66;4995709;28;102032;-54
2022/07/29 09:24:04;;;;;;;3.03;2.63;;;;;;;22.86;68.81;101421.94;4993104;28;103948;-54
2022/07/29 09:26:33;;;;;;;4.15;2.65;;;;;;;22.85;68.57;101415.59;4996360;28;102376;-53
2022/07/29 09:29:08;;;;;;;2.70;2.50;;;;;;;22.86;68.68;101410.84;4994975;28;102172;-54
2022/07/29 09:31:37;;;;;;;3.78;2.38;;;;;;;22.88;68.22;101414.09;4996350;28;102258;-54
2022/07/29 09:34:09;;;;;;;2.55;2.35;;;;;;;22.87;68.94;101398.59;4995537;28;103971;-53
2022/07/29 09:36:40;;;;;;;4.53;2.38;;;;;;;22.87;68.93;101399.41;4996080;28;102043;-54
2022/07/29 09:39:07;;;;;;;3.63;2.13;;;;;;;22.88;68.15;101400.22;4994056;28;102295;-54
2022/07/29 09:41:45;;;;;;;2.55;2.25;;;;;;;22.88;68.58;101400.22;4996140;28;102430;-54
2022/07/29 09:44:11;;;;;;;2.53;2.30;;;;;;;22.86;68.42;101402.50;4993492;28;103975;-54
2022/07/29 09:46:38;;;;;;;2.80;2.53;;;;;;;22.88;68.15;101400.22;4989990;28;102568;-54
2022/07/29 09:49:10;;;;;;;2.53;2.33;;;;;;;22.88;68.17;101403.00;4995356;28;102565;-54
2022/07/29 09:51:37;;;;;;;3.78;2.45;;;;;;;22.87;68.35;101395.84;4992713;28;102510;-54
2022/07/29 09:54:22;;;;;;;2.67;2.47;;;;;;;22.86;68.68;101403.31;4990527;28;103972;-53
2022/07/29 09:56:49;;;;;;;4.78;2.80;;;;;;;22.85;68.97;101395.34;4993427;28;101971;-54
2022/07/29 09:59:15;;;;;;;2.78;2.53;;;;;;;22.84;68.69;101396.50;4997270;28;103038;-54
2022/07/29 10:01:42;;;;;;;2.50;2.30;;;;;;;22.85;68.20;101403.66;4998151;28;102401;-54
2022/07/29 10:04:10;;;;;;;2.22;2.08;;;;;;;22.84;69.01;101402.06;4987423;28;103915;-54
2022/07/29 10:06:56;;;;;;;2.92;2.55;;;;;;;22.83;68.77;101405.97;4991619;28;102026;-54
2022/07/29 10:09:24;;;;;;;2.78;2.55;;;;;;;22.82;68.69;101396.03;4997348;28;102652;-54
2022/07/29 10:12:07;;;;;;;2.90;2.70;;;;;;;22.82;67.85;101391.28;4996755;28;102557;-54
2022/07/29 10:14:37;;;;;;;3.22;2.63;;;;;;;22.84;67.96;101390.97;4998172;28;104162;-54
2022/07/29 10:17:06;;;;;;;3.22;2.92;;;;;;;22.82;68.57;101393.25;4998893;28;102007;-54
2022/07/29 10:19:35;;;;;;;2.80;2.60;;;;;;;22.82;68.34;101396.03;4997918;28;102267;-53
2022/07/29 10:22:10;;;;;;;3.20;2.90;;;;;;;22.81;68.79;101394.41;4999392;28;102160;-54
2022/07/29 10:24:38;;;;;;;2.92;2.72;;;;;;;22.79;68.43;101390.00;4998366;28;104327;-54
2022/07/29 10:27:08;;;;;;;2.97;2.70;;;;;;;22.81;68.66;101397.19;4998399;28;102191;-54
2022/07/29 10:29:36;;;;;;;4.70;2.47;;;;;;;22.78;68.96;101396.69;4997738;28;102840;-54
2022/07/29 10:32:21;;;;;;;2.88;2.67;;;;;;;22.76;69.00;101395.44;4999033;28;102231;-54
2022/07/29 10:35:14;;;;;;;2.90;2.70;;;;;;;22.74;69.12;101384.66;4997709;28;103995;-54
2022/07/29 10:38:07;;;;;;;2.92;2.63;;;;;;;22.74;69.05;101392.97;4997643;28;102260;-54
2022/07/29 10:41:32;;;;;;;2.92;2.72;;;;;;;22.74;69.06;101397.72;4993126;28;102457;-54
2022/07/29 10:43:37;;;;;;;3.03;2.72;;;;;;;22.73;69.33;101402.44;4986205;28;103950;-54
2022/07/29 10:46:05;;;;;;;2.88;2.60;;;;;;;22.73;69.31;101396.91;4994187;28;103899;-54
2022/07/29 10:48:32;;;;;;;3.03;2.70;;;;;;;22.73;68.97;101390.53;4997314;28;101949;-54
2022/07/29 10:51:04;;;;;;;3.42;3.13;;;;;;;22.72;69.03;101384.19;4996426;28;102662;-54
2022/07/29 10:53:48;;;;;;;2.80;2.60;;;;;;;22.71;69.37;101388.09;4992619;28;102470;-54
2022/07/29 10:56:24;;;;;;;3.15;2.85;;;;;;;22.71;69.28;101382.53;4994126;28;108939;-54
2022/07/29 10:59:25;;;;;;;2.92;2.63;;;;;;;22.71;69.44;101388.09;4997503;28;101991;-54
2022/07/29 11:01:53;;;;;;;2.90;2.70;;;;;;;22.71;69.08;101377.00;4994188;28;102291;-54
2022/07/29 11:04:53;;;;;;;3.10;2.83;;;;;;;22.70;69.28;101380.94;4994803;28;102136;-54
2022/07/29 11:07:19;;;;;;;3.92;2.97;;;;;;;22.70;69.40;101380.94;4993753;28;103982;-54
2022/07/29 11:10:21;;;;;;;2.97;2.78;;;;;;;22.70;69.47;101375.38;4993735;28;102188;-54
2022/07/29 11:12:49;;;;;;;2.78;2.58;;;;;;;22.70;69.34;101375.38;4989764;28;102096;-54
2022/07/29 11:15:18;;;;;;;3.13;2.83;;;;;;;22.69;69.71;101357.13;4997468;28;102490;-54
2022/07/29 11:18:06;;;;;;;4.25;2.65;;;;;;;22.70;69.50;101358.72;4993232;28;104075;-53
2022/07/29 11:20:41;;;;;;;3.70;3.40;;;;;;;22.70;69.48;101339.31;4997057;28;102424;-54
2022/07/29 11:23:26;;;;;;;3.10;2.80;;;;;;;22.72;69.37;101339.78;4990428;28;101869;-54
2022/07/29 11:26:19;;;;;;;3.45;2.97;;;;;;;22.71;69.40;101343.69;4978820;28;102641;-54
2022/07/29 11:28:51;;;;;;;3.08;2.88;;;;;;;22.71;69.24;101332.59;4990228;28;103893;-54
2022/07/29 11:31:33;;;;;;;4.63;2.70;;;;;;;22.71;69.15;101321.50;4997469;28;101967;-54
2022/07/29 11:34:23;;;;;;;2.90;2.70;;;;;;;22.71;69.42;101321.50;4988509;28;102227;-54
2022/07/29 11:37:15;;;;;;;3.25;3.05;;;;;;;22.72;69.38;101323.16;4996805;28;102667;-54
2022/07/29 11:40:15;;;;;;;3.15;2.85;;;;;;;22.74;69.32;101320.03;4995695;28;107867;-54
2022/07/29 11:42:46;;;;;;;2.80;2.60;;;;;;;22.74;69.35;101320.03;4995270;28;102380;-53